sensor_id;sensor_type;location;lat;lon;timestamp;pressure;altitude;pressure_sealevel;temperature
68012;BMP180;54794;48.348;7.878;2022-11-03T00:02:11;99443.00;;;10.60
68012;BMP180;54794;48.348;7.878;2022-11-03T00:04:38;99431.00;;;10.40
68012;BMP180;54794;48.348;7.878;2022-11-03T00:07:04;99429.00;;;10.30
68012;BMP180;54794;48.348;7.878;2022-11-03T00:09:31;99439.00;;;10.10
68012;BMP180;54794;48.348;7.878;2022-11-03T00:11:58;99440.00;;;10.20
68012;BMP180;54794;48.348;7.878;2022-11-03T00:14:25;99430.00;;;10.30
68012;BMP180;54794;48.348;7.878;2022-11-03T00:16:53;99444.00;;;10.60
68012;BMP180;54794;48.348;7.878;2022-11-03T00:19:20;99449.00;;;10.40
68012;BMP180;54794;48.348;7.878;2022-11-03T00:21:47;99444.00;;;10.60
68012;BMP180;54794;48.348;7.878;2022-11-03T00:24:13;99441.00;;;10.20
68012;BMP180;54794;48.348;7.878;2022-11-03T00:26:40;99446.00;;;10.10
68012;BMP180;54794;48.348;7.878;2022-11-03T00:29:11;99449.00;;;10.10
68012;BMP180;54794;48.348;7.878;2022-11-03T00:31:41;99440.00;;;10.00
68012;BMP180;54794;48.348;7.878;2022-11-03T00:34:09;99434.00;;;10.10
68012;BMP180;54794;48.348;7.878;2022-11-03T00:36:39;99422.00;;;10.20
68012;BMP180;54794;48.348;7.878;2022-11-03T00:39:06;99432.00;;;10.30
68012;BMP180;54794;48.348;7.878;2022-11-03T00:41:34;99436.00;;;10.10
68012;BMP180;54794;48.348;7.878;2022-11-03T00:44:01;99435.00;;;10.00
68012;BMP180;54794;48.348;7.878;2022-11-03T00:46:28;99436.00;;;9.90
68012;BMP180;54794;48.348;7.878;2022-11-03T00:48:56;99436.00;;;9.70
68012;BMP180;54794;48.348;7.878;2022-11-03T00:51:26;99429.00;;;9.80
68012;BMP180;54794;48.348;7.878;2022-11-03T00:53:59;99431.00;;;9.70
68012;BMP180;54794;48.348;7.878;2022-11-03T00:56:35;99431.00;;;9.90
68012;BMP180;54794;48.348;7.878;2022-11-03T00:59:05;99435.00;;;9.90
68012;BMP180;54794;48.348;7.878;2022-11-03T01:01:39;99437.00;;;9.60
68012;BMP180;54794;48.348;7.878;2022-11-03T01:04:15;99431.00;;;9.70
68012;BMP180;54794;48.348;7.878;2022-11-03T01:07:03;99437.00;;;9.30
68012;BMP180;54794;48.348;7.878;2022-11-03T01:09:39;99435.00;;;9.70
68012;BMP180;54794;48.348;7.878;2022-11-03T01:12:15;99432.00;;;9.90
68012;BMP180;54794;48.348;7.878;2022-11-03T01:17:23;99430.00;;;9.70
68012;BMP180;54794;48.348;7.878;2022-11-03T01:19:51;99426.00;;;9.40
68012;BMP180;54794;48.348;7.878;2022-11-03T01:22:20;99416.00;;;9.40
68012;BMP180;54794;48.348;7.878;2022-11-03T01:24:48;99419.00;;;9.70
68012;BMP180;54794;48.348;7.878;2022-11-03T01:27:19;99409.00;;;9.80
68012;BMP180;54794;48.348;7.878;2022-11-03T01:29:47;99402.00;;;10.00
68012;BMP180;54794;48.348;7.878;2022-11-03T01:32:14;99401.00;;;9.80
68012;BMP180;54794;48.348;7.878;2022-11-03T01:34:41;99389.00;;;9.70
68012;BMP180;54794;48.348;7.878;2022-11-03T01:37:08;99397.00;;;9.60
68012;BMP180;54794;48.348;7.878;2022-11-03T01:39:35;99386.00;;;9.70
68012;BMP180;54794;48.348;7.878;2022-11-03T01:42:02;99391.00;;;9.70
68012;BMP180;54794;48.348;7.878;2022-11-03T01:44:36;99384.00;;;9.70
68012;BMP180;54794;48.348;7.878;2022-11-03T01:47:25;99384.00;;;9.70
68012;BMP180;54794;48.348;7.878;2022-11-03T01:50:16;99375.00;;;9.90
68012;BMP180;54794;48.348;7.878;2022-11-03T01:52:53;99370.00;;;10.00
68012;BMP180;54794;48.348;7.878;2022-11-03T01:55:29;99368.00;;;10.00
68012;BMP180;54794;48.348;7.878;2022-11-03T01:58:25;99363.00;;;9.90
68012;BMP180;54794;48.348;7.878;2022-11-03T02:00:56;99358.00;;;10.00
68012;BMP180;54794;48.348;7.878;2022-11-03T02:03:31;99359.00;;;10.00
68012;BMP180;54794;48.348;7.878;2022-11-03T02:05:59;99363.00;;;9.90
68012;BMP180;54794;48.348;7.878;2022-11-03T02:08:35;99344.00;;;9.80
68012;BMP180;54794;48.348;7.878;2022-11-03T02:11:03;99346.00;;;9.70
68012;BMP180;54794;48.348;7.878;2022-11-03T02:13:51;99340.00;;;9.70
68012;BMP180;54794;48.348;7.878;2022-11-03T02:16:20;99333.00;;;9.90
68012;BMP180;54794;48.348;7.878;2022-11-03T02:18:50;99330.00;;;10.00
68012;BMP180;54794;48.348;7.878;2022-11-03T02:21:37;99324.00;;;10.00
68012;BMP180;54794;48.348;7.878;2022-11-03T02:24:24;99324.00;;;10.00
68012;BMP180;54794;48.348;7.878;2022-11-03T02:26:55;99314.00;;;10.00
68012;BMP180;54794;48.348;7.878;2022-11-03T02:29:22;99307.00;;;10.00
68012;BMP180;54794;48.348;7.878;2022-11-03T02:32:01;99289.00;;;9.80
68012;BMP180;54794;48.348;7.878;2022-11-03T02:37:55;99291.00;;;10.10
68012;BMP180;54794;48.348;7.878;2022-11-03T02:40:21;99288.00;;;9.90
68012;BMP180;54794;48.348;7.878;2022-11-03T02:42:52;99291.00;;;9.80
68012;BMP180;54794;48.348;7.878;2022-11-03T02:45:22;99290.00;;;9.70
68012;BMP180;54794;48.348;7.878;2022-11-03T02:47:54;99284.00;;;9.80
68012;BMP180;54794;48.348;7.878;2022-11-03T02:50:28;99276.00;;;9.70
68012;BMP180;54794;48.348;7.878;2022-11-03T02:52:56;99275.00;;;9.70
68012;BMP180;54794;48.348;7.878;2022-11-03T02:55:50;99263.00;;;9.90
68012;BMP180;54794;48.348;7.878;2022-11-03T03:01:09;99265.00;;;9.60
68012;BMP180;54794;48.348;7.878;2022-11-03T03:03:47;99254.00;;;9.30
68012;BMP180;54794;48.348;7.878;2022-11-03T03:06:39;99256.00;;;9.50
68012;BMP180;54794;48.348;7.878;2022-11-03T03:09:23;99240.00;;;9.30
68012;BMP180;54794;48.348;7.878;2022-11-03T03:11:54;99236.00;;;9.60
68012;BMP180;54794;48.348;7.878;2022-11-03T03:14:38;99223.00;;;9.60
68012;BMP180;54794;48.348;7.878;2022-11-03T03:20:23;99214.00;;;9.60
68012;BMP180;54794;48.348;7.878;2022-11-03T03:25:44;99204.00;;;9.40
68012;BMP180;54794;48.348;7.878;2022-11-03T03:28:47;99202.00;;;9.30
68012;BMP180;54794;48.348;7.878;2022-11-03T03:31:18;99188.00;;;9.20
68012;BMP180;54794;48.348;7.878;2022-11-03T03:33:49;99187.00;;;9.40
68012;BMP180;54794;48.348;7.878;2022-11-03T03:36:32;99186.00;;;9.20
68012;BMP180;54794;48.348;7.878;2022-11-03T03:39:03;99180.00;;;9.40
68012;BMP180;54794;48.348;7.878;2022-11-03T03:41:34;99174.00;;;9.40
68012;BMP180;54794;48.348;7.878;2022-11-03T03:44:05;99167.00;;;9.10
68012;BMP180;54794;48.348;7.878;2022-11-03T03:46:58;99165.00;;;9.10
68012;BMP180;54794;48.348;7.878;2022-11-03T03:49:26;99171.00;;;9.30
68012;BMP180;54794;48.348;7.878;2022-11-03T03:51:53;99174.00;;;9.50
68012;BMP180;54794;48.348;7.878;2022-11-03T03:54:20;99170.00;;;9.50
68012;BMP180;54794;48.348;7.878;2022-11-03T03:56:59;99166.00;;;9.50
68012;BMP180;54794;48.348;7.878;2022-11-03T03:59:26;99164.00;;;9.30
68012;BMP180;54794;48.348;7.878;2022-11-03T04:01:53;99156.00;;;9.10
68012;BMP180;54794;48.348;7.878;2022-11-03T04:04:20;99171.00;;;9.20
68012;BMP180;54794;48.348;7.878;2022-11-03T04:06:47;99167.00;;;9.20
68012;BMP180;54794;48.348;7.878;2022-11-03T04:09:14;99158.00;;;9.20
68012;BMP180;54794;48.348;7.878;2022-11-03T04:11:41;99160.00;;;9.00
68012;BMP180;54794;48.348;7.878;2022-11-03T04:14:26;99168.00;;;9.00
68012;BMP180;54794;48.348;7.878;2022-11-03T04:17:19;99170.00;;;9.10
68012;BMP180;54794;48.348;7.878;2022-11-03T04:20:12;99166.00;;;8.80
68012;BMP180;54794;48.348;7.878;2022-11-03T04:22:57;99170.00;;;8.80
68012;BMP180;54794;48.348;7.878;2022-11-03T04:25:24;99155.00;;;9.10
68012;BMP180;54794;48.348;7.878;2022-11-03T04:27:51;99157.00;;;8.80
68012;BMP180;54794;48.348;7.878;2022-11-03T04:30:20;99153.00;;;9.00
68012;BMP180;54794;48.348;7.878;2022-11-03T04:32:51;99147.00;;;9.10
68012;BMP180;54794;48.348;7.878;2022-11-03T04:35:21;99134.00;;;9.30
68012;BMP180;54794;48.348;7.878;2022-11-03T04:37:57;99146.00;;;9.00
68012;BMP180;54794;48.348;7.878;2022-11-03T04:40:27;99150.00;;;8.90
68012;BMP180;54794;48.348;7.878;2022-11-03T04:42:54;99150.00;;;9.20
68012;BMP180;54794;48.348;7.878;2022-11-03T04:45:27;99141.00;;;9.40
68012;BMP180;54794;48.348;7.878;2022-11-03T04:47:56;99142.00;;;9.10
68012;BMP180;54794;48.348;7.878;2022-11-03T04:50:24;99134.00;;;9.20
68012;BMP180;54794;48.348;7.878;2022-11-03T04:52:56;99136.00;;;9.00
68012;BMP180;54794;48.348;7.878;2022-11-03T04:55:25;99123.00;;;9.00
68012;BMP180;54794;48.348;7.878;2022-11-03T04:57:57;99125.00;;;8.90
68012;BMP180;54794;48.348;7.878;2022-11-03T05:00:25;99118.00;;;8.90
68012;BMP180;54794;48.348;7.878;2022-11-03T05:02:52;99111.00;;;9.10
68012;BMP180;54794;48.348;7.878;2022-11-03T05:05:25;99117.00;;;9.20
68012;BMP180;54794;48.348;7.878;2022-11-03T05:07:56;99110.00;;;9.10
68012;BMP180;54794;48.348;7.878;2022-11-03T05:10:27;99115.00;;;8.90
68012;BMP180;54794;48.348;7.878;2022-11-03T05:12:55;99110.00;;;9.00
68012;BMP180;54794;48.348;7.878;2022-11-03T05:15:52;99110.00;;;9.00
68012;BMP180;54794;48.348;7.878;2022-11-03T05:18:32;99112.00;;;9.00
68012;BMP180;54794;48.348;7.878;2022-11-03T05:21:05;99117.00;;;8.60
68012;BMP180;54794;48.348;7.878;2022-11-03T05:23:45;99112.00;;;9.00
68012;BMP180;54794;48.348;7.878;2022-11-03T05:26:21;99121.00;;;9.00
68012;BMP180;54794;48.348;7.878;2022-11-03T05:28:53;99110.00;;;9.20
68012;BMP180;54794;48.348;7.878;2022-11-03T05:31:26;99095.00;;;9.40
68012;BMP180;54794;48.348;7.878;2022-11-03T05:33:59;99090.00;;;9.40
68012;BMP180;54794;48.348;7.878;2022-11-03T05:36:29;99078.00;;;9.10
68012;BMP180;54794;48.348;7.878;2022-11-03T05:41:58;99056.00;;;9.00
68012;BMP180;54794;48.348;7.878;2022-11-03T05:44:38;99047.00;;;9.00
68012;BMP180;54794;48.348;7.878;2022-11-03T05:47:17;99048.00;;;8.90
68012;BMP180;54794;48.348;7.878;2022-11-03T05:49:46;99041.00;;;8.90
68012;BMP180;54794;48.348;7.878;2022-11-03T05:52:24;99044.00;;;8.90
68012;BMP180;54794;48.348;7.878;2022-11-03T05:54:55;99042.00;;;8.90
68012;BMP180;54794;48.348;7.878;2022-11-03T05:57:24;99042.00;;;9.00
68012;BMP180;54794;48.348;7.878;2022-11-03T05:59:51;99040.00;;;9.20
68012;BMP180;54794;48.348;7.878;2022-11-03T06:02:39;99038.00;;;8.90
68012;BMP180;54794;48.348;7.878;2022-11-03T06:05:20;99027.00;;;8.70
68012;BMP180;54794;48.348;7.878;2022-11-03T06:07:48;99033.00;;;8.90
68012;BMP180;54794;48.348;7.878;2022-11-03T06:10:26;99031.00;;;9.00
68012;BMP180;54794;48.348;7.878;2022-11-03T06:13:02;99031.00;;;8.90
68012;BMP180;54794;48.348;7.878;2022-11-03T06:15:35;99030.00;;;8.80
68012;BMP180;54794;48.348;7.878;2022-11-03T06:18:25;99031.00;;;8.60
68012;BMP180;54794;48.348;7.878;2022-11-03T06:21:06;99020.00;;;8.70
68012;BMP180;54794;48.348;7.878;2022-11-03T06:23:35;99017.00;;;9.00
68012;BMP180;54794;48.348;7.878;2022-11-03T06:28:50;99026.00;;;8.90
68012;BMP180;54794;48.348;7.878;2022-11-03T06:31:27;99023.00;;;9.00
68012;BMP180;54794;48.348;7.878;2022-11-03T06:33:56;99011.00;;;9.10
68012;BMP180;54794;48.348;7.878;2022-11-03T06:36:26;99010.00;;;9.10
68012;BMP180;54794;48.348;7.878;2022-11-03T06:39:14;99026.00;;;9.00
68012;BMP180;54794;48.348;7.878;2022-11-03T06:41:43;99019.00;;;9.00
68012;BMP180;54794;48.348;7.878;2022-11-03T06:44:27;99021.00;;;9.10
68012;BMP180;54794;48.348;7.878;2022-11-03T06:46:59;99018.00;;;9.20
68012;BMP180;54794;48.348;7.878;2022-11-03T06:49:32;99008.00;;;9.30
68012;BMP180;54794;48.348;7.878;2022-11-03T06:52:32;99007.00;;;9.40
68012;BMP180;54794;48.348;7.878;2022-11-03T06:55:17;99006.00;;;9.40
68012;BMP180;54794;48.348;7.878;2022-11-03T06:57:50;98994.00;;;9.40
68012;BMP180;54794;48.348;7.878;2022-11-03T07:03:27;98992.00;;;9.30
68012;BMP180;54794;48.348;7.878;2022-11-03T07:06:01;98976.00;;;9.20
68012;BMP180;54794;48.348;7.878;2022-11-03T07:08:38;98981.00;;;9.30
68012;BMP180;54794;48.348;7.878;2022-11-03T07:11:22;98970.00;;;9.30
68012;BMP180;54794;48.348;7.878;2022-11-03T07:13:53;98957.00;;;9.10
68012;BMP180;54794;48.348;7.878;2022-11-03T07:18:53;98955.00;;;9.30
68012;BMP180;54794;48.348;7.878;2022-11-03T07:21:39;98962.00;;;9.50
68012;BMP180;54794;48.348;7.878;2022-11-03T07:24:32;98969.00;;;9.30
68012;BMP180;54794;48.348;7.878;2022-11-03T07:29:48;98970.00;;;9.40
68012;BMP180;54794;48.348;7.878;2022-11-03T07:32:23;98969.00;;;9.50
68012;BMP180;54794;48.348;7.878;2022-11-03T07:35:03;98975.00;;;9.50
68012;BMP180;54794;48.348;7.878;2022-11-03T07:37:30;98970.00;;;9.60
68012;BMP180;54794;48.348;7.878;2022-11-03T07:39:57;98975.00;;;9.50
68012;BMP180;54794;48.348;7.878;2022-11-03T07:42:26;98967.00;;;9.70
68012;BMP180;54794;48.348;7.878;2022-11-03T07:44:55;98971.00;;;9.70
68012;BMP180;54794;48.348;7.878;2022-11-03T07:47:24;98963.00;;;9.70
68012;BMP180;54794;48.348;7.878;2022-11-03T07:49:55;98949.00;;;9.80
68012;BMP180;54794;48.348;7.878;2022-11-03T07:52:25;98953.00;;;10.00
68012;BMP180;54794;48.348;7.878;2022-11-03T07:54:55;98958.00;;;10.00
68012;BMP180;54794;48.348;7.878;2022-11-03T07:57:30;98946.00;;;10.10
68012;BMP180;54794;48.348;7.878;2022-11-03T08:00:08;98943.00;;;10.00
68012;BMP180;54794;48.348;7.878;2022-11-03T08:02:50;98941.00;;;10.10
68012;BMP180;54794;48.348;7.878;2022-11-03T08:05:19;98942.00;;;10.30
68012;BMP180;54794;48.348;7.878;2022-11-03T08:07:47;98935.00;;;10.10
68012;BMP180;54794;48.348;7.878;2022-11-03T08:10:14;98916.00;;;10.30
68012;BMP180;54794;48.348;7.878;2022-11-03T08:12:41;98913.00;;;10.40
68012;BMP180;54794;48.348;7.878;2022-11-03T08:15:08;98902.00;;;10.30
68012;BMP180;54794;48.348;7.878;2022-11-03T08:17:35;98905.00;;;10.40
68012;BMP180;54794;48.348;7.878;2022-11-03T08:20:02;98904.00;;;10.30
68012;BMP180;54794;48.348;7.878;2022-11-03T08:22:30;98908.00;;;10.30
68012;BMP180;54794;48.348;7.878;2022-11-03T08:24:56;98910.00;;;10.20
68012;BMP180;54794;48.348;7.878;2022-11-03T08:27:23;98914.00;;;10.30
68012;BMP180;54794;48.348;7.878;2022-11-03T08:29:50;98913.00;;;10.40
68012;BMP180;54794;48.348;7.878;2022-11-03T08:32:17;98898.00;;;10.70
68012;BMP180;54794;48.348;7.878;2022-11-03T08:34:44;98904.00;;;10.90
68012;BMP180;54794;48.348;7.878;2022-11-03T08:37:10;98898.00;;;10.80
68012;BMP180;54794;48.348;7.878;2022-11-03T08:39:37;98897.00;;;11.00
68012;BMP180;54794;48.348;7.878;2022-11-03T08:42:04;98909.00;;;11.00
68012;BMP180;54794;48.348;7.878;2022-11-03T08:44:31;98898.00;;;11.20
68012;BMP180;54794;48.348;7.878;2022-11-03T08:46:57;98897.00;;;11.10
68012;BMP180;54794;48.348;7.878;2022-11-03T08:49:24;98887.00;;;11.20
68012;BMP180;54794;48.348;7.878;2022-11-03T08:51:51;98896.00;;;11.20
68012;BMP180;54794;48.348;7.878;2022-11-03T08:54:18;98897.00;;;11.30
68012;BMP180;54794;48.348;7.878;2022-11-03T08:56:45;98889.00;;;11.50
68012;BMP180;54794;48.348;7.878;2022-11-03T08:59:14;98875.00;;;11.60
68012;BMP180;54794;48.348;7.878;2022-11-03T09:01:43;98858.00;;;11.60
68012;BMP180;54794;48.348;7.878;2022-11-03T09:04:10;98850.00;;;11.40
68012;BMP180;54794;48.348;7.878;2022-11-03T09:06:37;98853.00;;;11.50
68012;BMP180;54794;48.348;7.878;2022-11-03T09:09:04;98847.00;;;11.40
68012;BMP180;54794;48.348;7.878;2022-11-03T09:11:51;98852.00;;;11.70
68012;BMP180;54794;48.348;7.878;2022-11-03T09:14:18;98854.00;;;11.80
68012;BMP180;54794;48.348;7.878;2022-11-03T09:16:45;98847.00;;;11.50
68012;BMP180;54794;48.348;7.878;2022-11-03T09:19:11;98851.00;;;11.70
68012;BMP180;54794;48.348;7.878;2022-11-03T09:21:38;98839.00;;;11.80
68012;BMP180;54794;48.348;7.878;2022-11-03T09:24:06;98842.00;;;11.90
68012;BMP180;54794;48.348;7.878;2022-11-03T09:26:33;98832.00;;;12.00
68012;BMP180;54794;48.348;7.878;2022-11-03T09:29:00;98824.00;;;12.00
68012;BMP180;54794;48.348;7.878;2022-11-03T09:31:27;98827.00;;;12.10
68012;BMP180;54794;48.348;7.878;2022-11-03T09:33:54;98814.00;;;12.20
68012;BMP180;54794;48.348;7.878;2022-11-03T09:36:21;98815.00;;;12.30
68012;BMP180;54794;48.348;7.878;2022-11-03T09:38:48;98807.00;;;12.30
68012;BMP180;54794;48.348;7.878;2022-11-03T09:41:15;98806.00;;;12.30
68012;BMP180;54794;48.348;7.878;2022-11-03T09:44:01;98801.00;;;12.10
68012;BMP180;54794;48.348;7.878;2022-11-03T09:46:29;98798.00;;;12.10
68012;BMP180;54794;48.348;7.878;2022-11-03T09:48:57;98800.00;;;12.20
68012;BMP180;54794;48.348;7.878;2022-11-03T09:51:26;98788.00;;;12.40
68012;BMP180;54794;48.348;7.878;2022-11-03T09:53:56;98794.00;;;12.50
68012;BMP180;54794;48.348;7.878;2022-11-03T09:56:25;98788.00;;;12.50
68012;BMP180;54794;48.348;7.878;2022-11-03T09:58:52;98792.00;;;12.60
68012;BMP180;54794;48.348;7.878;2022-11-03T10:01:21;98780.00;;;12.70
68012;BMP180;54794;48.348;7.878;2022-11-03T10:03:48;98778.00;;;12.90
68012;BMP180;54794;48.348;7.878;2022-11-03T10:06:15;98771.00;;;12.90
68012;BMP180;54794;48.348;7.878;2022-11-03T10:08:45;98777.00;;;12.90
68012;BMP180;54794;48.348;7.878;2022-11-03T10:11:13;98761.00;;;12.90
68012;BMP180;54794;48.348;7.878;2022-11-03T10:13:52;98757.00;;;12.90
68012;BMP180;54794;48.348;7.878;2022-11-03T10:16:23;98754.00;;;12.90
68012;BMP180;54794;48.348;7.878;2022-11-03T10:18:52;98749.00;;;13.00
68012;BMP180;54794;48.348;7.878;2022-11-03T10:21:24;98748.00;;;13.10
68012;BMP180;54794;48.348;7.878;2022-11-03T10:23:52;98737.00;;;13.30
68012;BMP180;54794;48.348;7.878;2022-11-03T10:26:19;98732.00;;;13.50
68012;BMP180;54794;48.348;7.878;2022-11-03T10:29:06;98729.00;;;13.30
68012;BMP180;54794;48.348;7.878;2022-11-03T10:33:58;98719.00;;;13.60
68012;BMP180;54794;48.348;7.878;2022-11-03T10:36:28;98705.00;;;13.60
68012;BMP180;54794;48.348;7.878;2022-11-03T10:38:56;98698.00;;;13.60
68012;BMP180;54794;48.348;7.878;2022-11-03T10:41:27;98700.00;;;13.70
68012;BMP180;54794;48.348;7.878;2022-11-03T10:46:33;98674.00;;;13.80
68012;BMP180;54794;48.348;7.878;2022-11-03T10:49:18;98681.00;;;13.90
68012;BMP180;54794;48.348;7.878;2022-11-03T10:51:49;98667.00;;;13.90
68012;BMP180;54794;48.348;7.878;2022-11-03T10:54:20;98668.00;;;13.90
68012;BMP180;54794;48.348;7.878;2022-11-03T10:56:48;98665.00;;;14.00
68012;BMP180;54794;48.348;7.878;2022-11-03T10:59:34;98654.00;;;13.90
68012;BMP180;54794;48.348;7.878;2022-11-03T11:02:12;98647.00;;;14.00
68012;BMP180;54794;48.348;7.878;2022-11-03T11:04:40;98650.00;;;13.90
68012;BMP180;54794;48.348;7.878;2022-11-03T11:07:31;98651.00;;;13.80
68012;BMP180;54794;48.348;7.878;2022-11-03T11:12:32;98633.00;;;14.20
68012;BMP180;54794;48.348;7.878;2022-11-03T11:15:02;98630.00;;;14.20
68012;BMP180;54794;48.348;7.878;2022-11-03T11:17:45;98624.00;;;14.20
68012;BMP180;54794;48.348;7.878;2022-11-03T11:22:49;98614.00;;;14.30
68012;BMP180;54794;48.348;7.878;2022-11-03T11:25:19;98615.00;;;14.30
68012;BMP180;54794;48.348;7.878;2022-11-03T11:27:54;98609.00;;;14.20
68012;BMP180;54794;48.348;7.878;2022-11-03T11:33:21;98601.00;;;14.40
68012;BMP180;54794;48.348;7.878;2022-11-03T11:50:11;98552.00;;;14.30
68012;BMP180;54794;48.348;7.878;2022-11-03T11:52:55;98557.00;;;14.20
68012;BMP180;54794;48.348;7.878;2022-11-03T11:57:51;98544.00;;;14.20
68012;BMP180;54794;48.348;7.878;2022-11-03T12:00:28;98540.00;;;14.30
68012;BMP180;54794;48.348;7.878;2022-11-03T12:02:57;98523.00;;;14.40
68012;BMP180;54794;48.348;7.878;2022-11-03T12:05:30;98521.00;;;14.40
68012;BMP180;54794;48.348;7.878;2022-11-03T12:07:57;98509.00;;;14.50
68012;BMP180;54794;48.348;7.878;2022-11-03T12:10:34;98495.00;;;14.70
68012;BMP180;54794;48.348;7.878;2022-11-03T12:13:01;98492.00;;;14.70
68012;BMP180;54794;48.348;7.878;2022-11-03T12:15:56;98485.00;;;14.60
68012;BMP180;54794;48.348;7.878;2022-11-03T12:21:12;98478.00;;;14.60
68012;BMP180;54794;48.348;7.878;2022-11-03T12:23:44;98477.00;;;14.50
68012;BMP180;54794;48.348;7.878;2022-11-03T12:28:54;98448.00;;;14.50
68012;BMP180;54794;48.348;7.878;2022-11-03T12:31:21;98447.00;;;14.60
68012;BMP180;54794;48.348;7.878;2022-11-03T12:33:50;98442.00;;;14.60
68012;BMP180;54794;48.348;7.878;2022-11-03T12:36:17;98433.00;;;14.70
68012;BMP180;54794;48.348;7.878;2022-11-03T12:38:44;98428.00;;;14.70
68012;BMP180;54794;48.348;7.878;2022-11-03T12:41:11;98408.00;;;14.80
68012;BMP180;54794;48.348;7.878;2022-11-03T12:43:48;98404.00;;;14.80
68012;BMP180;54794;48.348;7.878;2022-11-03T12:46:17;98395.00;;;14.90
68012;BMP180;54794;48.348;7.878;2022-11-03T12:48:45;98387.00;;;15.00
68012;BMP180;54794;48.348;7.878;2022-11-03T12:51:21;98371.00;;;15.00
68012;BMP180;54794;48.348;7.878;2022-11-03T12:53:49;98375.00;;;14.90
68012;BMP180;54794;48.348;7.878;2022-11-03T12:56:17;98356.00;;;15.00
68012;BMP180;54794;48.348;7.878;2022-11-03T12:58:44;98349.00;;;15.10
68012;BMP180;54794;48.348;7.878;2022-11-03T13:01:11;98355.00;;;15.20
68012;BMP180;54794;48.348;7.878;2022-11-03T13:03:38;98358.00;;;15.10
68012;BMP180;54794;48.348;7.878;2022-11-03T13:06:06;98346.00;;;15.30
68012;BMP180;54794;48.348;7.878;2022-11-03T13:08:36;98344.00;;;15.40
68012;BMP180;54794;48.348;7.878;2022-11-03T13:11:04;98345.00;;;15.40
68012;BMP180;54794;48.348;7.878;2022-11-03T13:13:52;98342.00;;;15.40
68012;BMP180;54794;48.348;7.878;2022-11-03T13:16:19;98343.00;;;15.30
68012;BMP180;54794;48.348;7.878;2022-11-03T13:18:46;98328.00;;;15.40
68012;BMP180;54794;48.348;7.878;2022-11-03T13:21:13;98322.00;;;15.40
68012;BMP180;54794;48.348;7.878;2022-11-03T13:23:40;98316.00;;;15.30
68012;BMP180;54794;48.348;7.878;2022-11-03T13:26:07;98313.00;;;15.40
68012;BMP180;54794;48.348;7.878;2022-11-03T13:28:34;98307.00;;;15.50
68012;BMP180;54794;48.348;7.878;2022-11-03T13:31:10;98290.00;;;15.60
68012;BMP180;54794;48.348;7.878;2022-11-03T13:33:38;98298.00;;;15.50
68012;BMP180;54794;48.348;7.878;2022-11-03T13:36:05;98293.00;;;15.50
68012;BMP180;54794;48.348;7.878;2022-11-03T13:38:32;98280.00;;;15.40
68012;BMP180;54794;48.348;7.878;2022-11-03T13:40:59;98281.00;;;15.50
68012;BMP180;54794;48.348;7.878;2022-11-03T13:43:34;98273.00;;;15.60
68012;BMP180;54794;48.348;7.878;2022-11-03T13:46:47;98263.00;;;15.40
68012;BMP180;54794;48.348;7.878;2022-11-03T13:49:14;98256.00;;;15.50
68012;BMP180;54794;48.348;7.878;2022-11-03T13:52:01;98252.00;;;15.40
68012;BMP180;54794;48.348;7.878;2022-11-03T13:54:28;98248.00;;;15.40
68012;BMP180;54794;48.348;7.878;2022-11-03T13:57:15;98233.00;;;15.50
68012;BMP180;54794;48.348;7.878;2022-11-03T14:00:07;98231.00;;;15.40
68012;BMP180;54794;48.348;7.878;2022-11-03T14:02:34;98241.00;;;15.30
68012;BMP180;54794;48.348;7.878;2022-11-03T14:05:21;98241.00;;;15.40
68012;BMP180;54794;48.348;7.878;2022-11-03T14:07:48;98238.00;;;15.40
68012;BMP180;54794;48.348;7.878;2022-11-03T14:10:15;98224.00;;;15.50
68012;BMP180;54794;48.348;7.878;2022-11-03T14:12:42;98221.00;;;15.40
68012;BMP180;54794;48.348;7.878;2022-11-03T14:15:10;98218.00;;;15.50
68012;BMP180;54794;48.348;7.878;2022-11-03T14:17:38;98214.00;;;15.40
68012;BMP180;54794;48.348;7.878;2022-11-03T14:20:09;98217.00;;;15.40
68012;BMP180;54794;48.348;7.878;2022-11-03T14:22:38;98211.00;;;15.50
68012;BMP180;54794;48.348;7.878;2022-11-03T14:25:06;98208.00;;;15.40
68012;BMP180;54794;48.348;7.878;2022-11-03T14:27:33;98200.00;;;15.60
68012;BMP180;54794;48.348;7.878;2022-11-03T14:30:01;98205.00;;;15.40
68012;BMP180;54794;48.348;7.878;2022-11-03T14:32:31;98188.00;;;15.30
68012;BMP180;54794;48.348;7.878;2022-11-03T14:34:58;98182.00;;;15.40
68012;BMP180;54794;48.348;7.878;2022-11-03T14:37:26;98162.00;;;15.40
68012;BMP180;54794;48.348;7.878;2022-11-03T14:39:54;98157.00;;;15.20
68012;BMP180;54794;48.348;7.878;2022-11-03T14:42:21;98156.00;;;15.20
68012;BMP180;54794;48.348;7.878;2022-11-03T14:44:48;98143.00;;;15.20
68012;BMP180;54794;48.348;7.878;2022-11-03T14:47:17;98157.00;;;15.00
68012;BMP180;54794;48.348;7.878;2022-11-03T14:49:44;98150.00;;;15.20
68012;BMP180;54794;48.348;7.878;2022-11-03T14:52:13;98141.00;;;15.20
68012;BMP180;54794;48.348;7.878;2022-11-03T14:54:41;98130.00;;;15.10
68012;BMP180;54794;48.348;7.878;2022-11-03T14:57:08;98126.00;;;15.10
68012;BMP180;54794;48.348;7.878;2022-11-03T14:59:35;98122.00;;;15.20
68012;BMP180;54794;48.348;7.878;2022-11-03T15:02:04;98113.00;;;15.20
68012;BMP180;54794;48.348;7.878;2022-11-03T15:04:32;98104.00;;;15.20
68012;BMP180;54794;48.348;7.878;2022-11-03T15:06:59;98096.00;;;15.20
68012;BMP180;54794;48.348;7.878;2022-11-03T15:09:26;98082.00;;;15.00
68012;BMP180;54794;48.348;7.878;2022-11-03T15:11:52;98080.00;;;15.10
68012;BMP180;54794;48.348;7.878;2022-11-03T15:14:20;98078.00;;;14.80
68012;BMP180;54794;48.348;7.878;2022-11-03T15:16:48;98087.00;;;14.80
68012;BMP180;54794;48.348;7.878;2022-11-03T15:19:16;98081.00;;;14.90
68012;BMP180;54794;48.348;7.878;2022-11-03T15:21:43;98085.00;;;15.00
68012;BMP180;54794;48.348;7.878;2022-11-03T15:24:11;98071.00;;;14.90
68012;BMP180;54794;48.348;7.878;2022-11-03T15:26:57;98071.00;;;15.00
68012;BMP180;54794;48.348;7.878;2022-11-03T15:29:24;98072.00;;;14.90
68012;BMP180;54794;48.348;7.878;2022-11-03T15:31:51;98071.00;;;14.90
68012;BMP180;54794;48.348;7.878;2022-11-03T15:34:18;98075.00;;;14.90
68012;BMP180;54794;48.348;7.878;2022-11-03T15:36:45;98075.00;;;15.00
68012;BMP180;54794;48.348;7.878;2022-11-03T15:39:11;98075.00;;;14.90
68012;BMP180;54794;48.348;7.878;2022-11-03T15:41:39;98079.00;;;14.70
68012;BMP180;54794;48.348;7.878;2022-11-03T15:44:12;98094.00;;;14.20
68012;BMP180;54794;48.348;7.878;2022-11-03T15:46:39;98098.00;;;14.30